createdAt,value
2018-07-04T00:03:19.588Z,95575.6
2018-07-04T00:08:17.737Z,95577.2
2018-07-04T00:13:15.729Z,95575.4
2018-07-04T00:18:14.093Z,95578.9
2018-07-04T00:23:11.846Z,95581.2
2018-07-04T00:28:10.082Z,95578.3
2018-07-04T00:33:08.213Z,95580.1
2018-07-04T00:38:06.180Z,95508
2018-07-04T00:43:04.354Z,95583
2018-07-04T00:48:02.905Z,95587.9
2018-07-04T00:53:01.147Z,95585.6
2018-07-04T00:57:59.148Z,95582
2018-07-04T01:02:57.092Z,95576.1
2018-07-04T01:07:55.038Z,95570.5
2018-07-04T01:12:52.871Z,95566.7
2018-07-04T01:17:51.232Z,95495.2
2018-07-04T01:22:49.444Z,95560.2
2018-07-04T01:27:47.673Z,95494.4
2018-07-04T01:32:45.652Z,95571.5
2018-07-04T01:37:43.916Z,95572.8
2018-07-04T01:42:42.238Z,95567.4
2018-07-04T01:47:40.493Z,95553.4
2018-07-04T01:52:38.863Z,95549.6
2018-07-04T01:57:37.026Z,95552.7
2018-07-04T02:02:35.165Z,95565.3
2018-07-04T02:07:33.219Z,95563.8
2018-07-04T02:12:31.694Z,95567.2
2018-07-04T02:17:29.556Z,95565.1
2018-07-04T02:22:27.507Z,95556.1
2018-07-04T02:27:25.344Z,95555.9
2018-07-04T02:32:23.353Z,95555.7
2018-07-04T02:37:21.585Z,95555.3
2018-07-04T02:42:19.412Z,95553
2018-07-04T02:47:17.560Z,95551.9
2018-07-04T02:52:15.873Z,95553.6
2018-07-04T02:57:13.814Z,95553.2
2018-07-04T03:02:12.362Z,95563.8
2018-07-04T03:07:10.186Z,95581.8
2018-07-04T03:12:08.378Z,95586.5
2018-07-04T03:17:06.414Z,95589
2018-07-04T03:22:04.407Z,95496.9
2018-07-04T03:27:02.911Z,95565.6
2018-07-04T03:32:00.822Z,95500.5
2018-07-04T03:36:59.168Z,95564.7
2018-07-04T03:41:57.319Z,95491
2018-07-04T03:46:55.257Z,95575.2
2018-07-04T03:51:53.173Z,95567.3
2018-07-04T03:56:50.757Z,95554.1
2018-07-04T04:01:48.494Z,95556.6
2018-07-04T04:06:45.904Z,95580.1
2018-07-04T04:11:43.972Z,95589.7
2018-07-04T04:16:42.280Z,95597.8
2018-07-04T04:21:40.021Z,95614.8
2018-07-04T04:26:37.926Z,95602.3
2018-07-04T04:31:35.943Z,95547.8
2018-07-04T04:36:33.908Z,95620.8
2018-07-04T04:41:32.106Z,95630.6
2018-07-04T04:46:30.255Z,95623.5
2018-07-04T04:51:28.368Z,95618.7
2018-07-04T04:56:26.510Z,95614.9
2018-07-04T05:01:25.068Z,95617
2018-07-04T05:06:23.096Z,95618.6
2018-07-04T05:11:21.112Z,95603.8
2018-07-04T05:16:19.365Z,95591.7
2018-07-04T05:21:17.221Z,95595.2
2018-07-04T05:26:15.214Z,95594.6
2018-07-04T05:31:13.222Z,95598.7
2018-07-04T05:36:11.210Z,95591
2018-07-04T05:41:09.281Z,95585.5
2018-07-04T05:46:08.182Z,95580.7
2018-07-04T05:51:06.082Z,95580.5
2018-07-04T05:56:04.185Z,95574.7
2018-07-04T06:01:02.167Z,95575.3
2018-07-04T06:06:00.080Z,95566.7
2018-07-04T06:10:58.149Z,95559.6
2018-07-04T06:15:55.887Z,95553.6
2018-07-04T06:20:54.002Z,95553.2
2018-07-04T06:25:51.663Z,95550.2
2018-07-04T06:30:49.670Z,95550.6
2018-07-04T06:35:47.793Z,95538.7
2018-07-04T06:40:46.652Z,95535.4
2018-07-04T06:45:44.933Z,95454.1
2018-07-04T06:50:42.511Z,95443.1
2018-07-04T06:55:39.962Z,95514.6
2018-07-04T07:00:38.013Z,95513.8
2018-07-04T07:05:36.010Z,95510
2018-07-04T07:10:34.070Z,95511.1
2018-07-04T07:15:31.685Z,95510.9
2018-07-04T07:20:30.050Z,95441.6
2018-07-04T07:25:28.162Z,95518
2018-07-04T07:30:26.181Z,95441.1
2018-07-04T07:35:24.168Z,95514.3
2018-07-04T07:40:22.222Z,95509.4
2018-07-04T07:45:20.411Z,95511.3
2018-07-04T07:50:18.309Z,95506.5
2018-07-04T07:55:16.370Z,95507.9
2018-07-04T08:00:13.975Z,95498.1
2018-07-04T08:05:12.066Z,95497.5
2018-07-04T08:10:10.716Z,95498.8
2018-07-04T08:15:08.771Z,95420.9
2018-07-04T08:20:06.839Z,95426.2
2018-07-04T08:25:04.758Z,95494.7
2018-07-04T08:30:02.698Z,95490.6
2018-07-04T08:35:00.833Z,95489.5
2018-07-04T08:39:58.987Z,95462.5
2018-07-04T08:44:57.236Z,95483.5
2018-07-04T08:49:55.321Z,95475.5
2018-07-04T08:54:53.452Z,95470.8
2018-07-04T08:59:52.247Z,95420.5
2018-07-04T09:04:50.384Z,95447.1
2018-07-04T09:09:48.379Z,95442.8
2018-07-04T09:14:47.381Z,95442.6
2018-07-04T09:19:45.187Z,95438.5
2018-07-04T09:24:43.540Z,95437
2018-07-04T09:29:41.665Z,95443
2018-07-04T09:34:40.263Z,95439.7
2018-07-04T09:39:38.312Z,95432.1
2018-07-04T09:44:36.692Z,95423.7
2018-07-04T09:49:35.081Z,95422.2
2018-07-04T09:54:33.391Z,95409.8
2018-07-04T09:59:31.525Z,95393.1
2018-07-04T10:04:30.099Z,95389.7
2018-07-04T10:09:28.104Z,95390.6
2018-07-04T10:14:26.166Z,95388.7
2018-07-04T10:19:24.732Z,95395.2
2018-07-04T10:24:23.121Z,95389.9
2018-07-04T10:29:21.438Z,95381.4
2018-07-04T10:34:19.420Z,95371.5
2018-07-04T10:39:18.144Z,95372.2
2018-07-04T10:44:16.658Z,95371.6
2018-07-04T10:49:14.883Z,95365.4
2018-07-04T10:54:12.561Z,95352.3
2018-07-04T10:59:11.163Z,95348.3
2018-07-04T11:04:09.864Z,95342
2018-07-04T11:09:08.265Z,95348.1
2018-07-04T11:14:06.314Z,95339.6
2018-07-04T11:19:04.389Z,95334.9
2018-07-04T11:24:02.886Z,95351.5
2018-07-04T11:29:01.100Z,95362.5
2018-07-04T11:33:59.494Z,95345.3
2018-07-04T11:38:57.652Z,95340.1
2018-07-04T11:43:55.933Z,95322
2018-07-04T11:48:54.184Z,95251.2
2018-07-04T11:53:52.312Z,95287.3
2018-07-04T11:58:50.749Z,95312.9
2018-07-04T12:03:49.215Z,95305.6
2018-07-04T12:08:47.748Z,95319.1
2018-07-04T12:13:45.535Z,95296.7
2018-07-04T12:18:44.864Z,95297.3
2018-07-04T12:23:43.002Z,95307.8
2018-07-04T12:28:41.220Z,95307
2018-07-04T12:33:39.898Z,95288
2018-07-04T12:38:38.268Z,95276.8
2018-07-04T12:43:37.119Z,95204.9
2018-07-04T12:48:35.588Z,95260.8
2018-07-04T12:53:33.478Z,95246.5
2018-07-04T12:58:32.129Z,95239.4
2018-07-04T13:03:30.982Z,95232.3
2018-07-04T13:08:28.850Z,95209.2
2018-07-04T13:13:27.294Z,95225.6
2018-07-04T13:18:26.114Z,95155.5
2018-07-04T13:23:24.660Z,95147.2
2018-07-04T13:28:23.165Z,95141.2
2018-07-04T13:33:20.722Z,95138.1
2018-07-04T13:38:18.685Z,95142.3
2018-07-04T13:43:16.927Z,95143.2
2018-07-04T13:48:14.995Z,95134.9
2018-07-04T13:53:13.476Z,95137.6
2018-07-04T13:58:11.741Z,95123.5
2018-07-04T14:03:11.189Z,95126
2018-07-04T14:08:08.824Z,95161.6
2018-07-04T14:13:06.696Z,95182.5
2018-07-04T14:18:04.518Z,95101.6
2018-07-04T14:23:02.951Z,95196.8
2018-07-04T14:28:00.756Z,95144.4
2018-07-04T14:32:58.854Z,95198.4
2018-07-04T14:37:56.893Z,95191.4
2018-07-04T14:42:55.139Z,95193.9
2018-07-04T14:47:52.066Z,95199.7
2018-07-04T14:52:50.080Z,95214.4
2018-07-04T14:57:48.522Z,95228.5
2018-07-04T15:02:46.163Z,95228
2018-07-04T15:07:43.868Z,95239.6
2018-07-04T15:12:41.471Z,95258.5
2018-07-04T15:17:37.469Z,95287.4
2018-07-04T15:22:35.051Z,95303
2018-07-04T15:27:35.885Z,95293
2018-07-04T15:32:32.766Z,95275.9
2018-07-04T15:37:30.348Z,95277.2
2018-07-04T15:42:28.467Z,95308.6
2018-07-04T15:47:26.285Z,95325.6
2018-07-04T15:52:24.257Z,95313
2018-07-04T15:57:21.946Z,95364.6
2018-07-04T16:02:19.566Z,95451.5
2018-07-04T16:07:17.345Z,95500.3
2018-07-04T16:12:15.096Z,95468
2018-07-04T16:17:12.806Z,95356.9
2018-07-04T16:22:10.756Z,95402
2018-07-04T16:27:08.576Z,95314.2
2018-07-04T16:32:06.135Z,95289.3
2018-07-04T16:37:04.594Z,95285.1
2018-07-04T16:42:02.331Z,95342
2018-07-04T16:47:00.326Z,95346.1
2018-07-04T16:51:58.332Z,95395.6
2018-07-04T16:56:56.525Z,95417
2018-07-04T17:01:54.310Z,95411.6
2018-07-04T17:06:52.361Z,95449.1
2018-07-04T17:11:50.383Z,95370.2
2018-07-04T17:16:48.200Z,95419
2018-07-04T17:21:45.706Z,95423.9
2018-07-04T17:26:43.519Z,95394.4
2018-07-04T17:31:41.301Z,95416.2
2018-07-04T17:36:39.100Z,95388.1
2018-07-04T17:41:36.848Z,95400.3
2018-07-04T17:46:34.908Z,95420.7
2018-07-04T17:51:32.847Z,95430.8
2018-07-04T17:56:30.730Z,95356.8
2018-07-04T18:01:29.567Z,95377.1
2018-07-04T18:06:27.306Z,95504.3
2018-07-04T18:11:25.557Z,95572.8
2018-07-04T18:16:23.442Z,95493.8
2018-07-04T18:21:21.339Z,95452
2018-07-04T18:26:19.228Z,95517.2
2018-07-04T18:31:17.196Z,95521
2018-07-04T18:36:14.900Z,95449.9
2018-07-04T18:41:12.645Z,95509.5
2018-07-04T18:46:10.701Z,95511.3
2018-07-04T18:51:08.077Z,95521.2
2018-07-04T18:56:06.470Z,95511.6
2018-07-04T19:01:04.155Z,95508.8
2018-07-04T19:06:01.999Z,95518.5
2018-07-04T19:10:59.923Z,95519.7
2018-07-04T19:15:57.205Z,95499.7
2018-07-04T19:20:54.993Z,95520.6
2018-07-04T19:25:53.220Z,95509.1
2018-07-04T19:30:51.662Z,95425.5
2018-07-04T19:35:49.661Z,95426.1
2018-07-04T19:40:47.469Z,95512.2
2018-07-04T19:45:45.235Z,95519.3
2018-07-04T19:50:43.325Z,95521.2
2018-07-04T19:55:41.166Z,95512.8
2018-07-04T20:00:38.863Z,95511.3
2018-07-04T20:05:37.003Z,95494.9
2018-07-04T20:10:35.937Z,95522.7
2018-07-04T20:15:33.957Z,95525.4
2018-07-04T20:20:31.826Z,95526
2018-07-04T20:25:29.768Z,95531.5
2018-07-04T20:30:27.991Z,95544.3
2018-07-04T20:35:26.053Z,95544.7
2018-07-04T20:40:24.125Z,95401
2018-07-04T20:45:21.951Z,95543.6
2018-07-04T20:50:20.308Z,95454.8
2018-07-04T20:55:18.149Z,95536.1
2018-07-04T21:00:16.052Z,95524.2
2018-07-04T21:05:14.019Z,95529.7
2018-07-04T21:10:12.134Z,95533.8
2018-07-04T21:15:10.387Z,95531.5
2018-07-04T21:20:08.407Z,95529.9
2018-07-04T21:25:06.364Z,95452.4
2018-07-04T21:30:05.022Z,95513.4
2018-07-04T21:35:02.943Z,95512.7
2018-07-04T21:40:01.180Z,95509.8
2018-07-04T21:44:59.036Z,95513
2018-07-04T21:49:56.823Z,95517.4
2018-07-04T21:54:54.994Z,95518.4
2018-07-04T21:59:53.011Z,95515.1
2018-07-04T22:04:50.597Z,95514.5
2018-07-04T22:09:48.306Z,95516
2018-07-04T22:14:46.343Z,95430.2
2018-07-04T22:19:44.344Z,95505.5
2018-07-04T22:24:42.639Z,95500.9
2018-07-04T22:29:40.736Z,95498
2018-07-04T22:34:38.367Z,95486.8
2018-07-04T22:39:36.425Z,95477.2
2018-07-04T22:44:34.564Z,95487.8
2018-07-04T22:49:32.517Z,95482
2018-07-04T22:54:30.451Z,95476.6
2018-07-04T22:59:28.586Z,95484.1
2018-07-04T23:04:26.914Z,95480.6
2018-07-04T23:09:25.215Z,95481.4
2018-07-04T23:14:23.076Z,95486.3
2018-07-04T23:19:21.515Z,95481
2018-07-04T23:24:19.430Z,95477.5
2018-07-04T23:29:17.675Z,95482.3
2018-07-04T23:34:15.710Z,95478.5
2018-07-04T23:39:13.870Z,95484.6
2018-07-04T23:44:11.619Z,95482.5
2018-07-04T23:49:09.487Z,95471.4
2018-07-04T23:54:07.787Z,95475.4
2018-07-04T23:59:05.512Z,95473.8
